sensor_id;sensor_type;location;lat;lon;timestamp;temperature;humidity
2024;DHT22;1016;48.770;9.154;2023-05-20T00:00:26;14.40;99.90
2024;DHT22;1016;48.770;9.154;2023-05-20T00:02:51;14.40;99.90
2024;DHT22;1016;48.770;9.154;2023-05-20T00:05:17;14.40;99.90
2024;DHT22;1016;48.770;9.154;2023-05-20T00:07:43;14.30;99.90
2024;DHT22;1016;48.770;9.154;2023-05-20T00:10:08;14.30;99.90
2024;DHT22;1016;48.770;9.154;2023-05-20T00:12:34;14.30;99.90
2024;DHT22;1016;48.770;9.154;2023-05-20T00:15:00;14.30;99.90
2024;DHT22;1016;48.770;9.154;2023-05-20T00:17:26;14.30;99.90
2024;DHT22;1016;48.770;9.154;2023-05-20T00:19:53;14.30;99.90
2024;DHT22;1016;48.770;9.154;2023-05-20T00:22:19;14.30;99.90
2024;DHT22;1016;48.770;9.154;2023-05-20T00:24:44;14.30;99.90
2024;DHT22;1016;48.770;9.154;2023-05-20T00:27:10;14.30;99.90
2024;DHT22;1016;48.770;9.154;2023-05-20T00:29:35;14.40;99.90
2024;DHT22;1016;48.770;9.154;2023-05-20T00:32:01;14.30;99.90
2024;DHT22;1016;48.770;9.154;2023-05-20T00:34:26;14.30;99.90
2024;DHT22;1016;48.770;9.154;2023-05-20T00:36:52;14.40;99.90
2024;DHT22;1016;48.770;9.154;2023-05-20T00:39:18;14.30;99.90
2024;DHT22;1016;48.770;9.154;2023-05-20T00:41:43;14.40;99.90
2024;DHT22;1016;48.770;9.154;2023-05-20T00:44:09;14.40;99.90
2024;DHT22;1016;48.770;9.154;2023-05-20T00:46:35;14.40;99.90
2024;DHT22;1016;48.770;9.154;2023-05-20T00:49:01;14.40;99.90
2024;DHT22;1016;48.770;9.154;2023-05-20T00:51:26;14.40;99.90
2024;DHT22;1016;48.770;9.154;2023-05-20T00:53:52;14.40;99.90
2024;DHT22;1016;48.770;9.154;2023-05-20T00:56:18;14.40;99.90
2024;DHT22;1016;48.770;9.154;2023-05-20T00:58:44;14.40;99.90
2024;DHT22;1016;48.770;9.154;2023-05-20T01:01:10;14.50;99.90
2024;DHT22;1016;48.770;9.154;2023-05-20T01:03:36;14.50;99.90
2024;DHT22;1016;48.770;9.154;2023-05-20T01:06:02;14.50;99.90
2024;DHT22;1016;48.770;9.154;2023-05-20T01:08:28;14.60;99.90
2024;DHT22;1016;48.770;9.154;2023-05-20T01:11:07;14.60;99.90
2024;DHT22;1016;48.770;9.154;2023-05-20T01:13:44;14.60;99.90
2024;DHT22;1016;48.770;9.154;2023-05-20T01:16:13;14.60;99.90
2024;DHT22;1016;48.770;9.154;2023-05-20T01:18:42;14.70;99.90
2024;DHT22;1016;48.770;9.154;2023-05-20T01:21:11;14.60;99.90
2024;DHT22;1016;48.770;9.154;2023-05-20T01:23:39;14.70;99.90
2024;DHT22;1016;48.770;9.154;2023-05-20T01:26:05;14.70;99.90
2024;DHT22;1016;48.770;9.154;2023-05-20T01:28:36;14.70;99.90
2024;DHT22;1016;48.770;9.154;2023-05-20T01:31:09;14.70;99.90
2024;DHT22;1016;48.770;9.154;2023-05-20T01:33:38;14.70;99.90
2024;DHT22;1016;48.770;9.154;2023-05-20T01:36:05;14.80;99.90
2024;DHT22;1016;48.770;9.154;2023-05-20T01:38:32;14.80;99.90
2024;DHT22;1016;48.770;9.154;2023-05-20T01:40:58;14.70;99.90
2024;DHT22;1016;48.770;9.154;2023-05-20T01:43:26;14.70;99.90
2024;DHT22;1016;48.770;9.154;2023-05-20T01:45:51;14.70;99.90
2024;DHT22;1016;48.770;9.154;2023-05-20T01:48:17;14.80;99.90
2024;DHT22;1016;48.770;9.154;2023-05-20T01:50:42;14.70;99.90
2024;DHT22;1016;48.770;9.154;2023-05-20T01:53:08;14.80;99.90
2024;DHT22;1016;48.770;9.154;2023-05-20T01:55:34;14.80;99.90
2024;DHT22;1016;48.770;9.154;2023-05-20T01:58:00;14.80;99.90
2024;DHT22;1016;48.770;9.154;2023-05-20T02:00:26;14.80;99.90
2024;DHT22;1016;48.770;9.154;2023-05-20T02:02:51;14.80;99.90
2024;DHT22;1016;48.770;9.154;2023-05-20T02:05:17;14.80;99.90
2024;DHT22;1016;48.770;9.154;2023-05-20T02:07:42;14.70;99.90
2024;DHT22;1016;48.770;9.154;2023-05-20T02:10:08;14.70;99.90
2024;DHT22;1016;48.770;9.154;2023-05-20T02:12:35;14.80;99.90
2024;DHT22;1016;48.770;9.154;2023-05-20T02:15:00;14.80;99.90
2024;DHT22;1016;48.770;9.154;2023-05-20T02:17:26;14.70;99.90
2024;DHT22;1016;48.770;9.154;2023-05-20T02:19:51;14.80;99.90
2024;DHT22;1016;48.770;9.154;2023-05-20T02:22:17;14.60;99.90
2024;DHT22;1016;48.770;9.154;2023-05-20T02:24:43;14.60;99.90
2024;DHT22;1016;48.770;9.154;2023-05-20T02:27:08;14.60;99.90
2024;DHT22;1016;48.770;9.154;2023-05-20T02:29:34;14.60;99.90
2024;DHT22;1016;48.770;9.154;2023-05-20T02:32:00;14.60;99.90
2024;DHT22;1016;48.770;9.154;2023-05-20T02:34:26;14.60;99.90
2024;DHT22;1016;48.770;9.154;2023-05-20T02:36:51;14.60;99.90
2024;DHT22;1016;48.770;9.154;2023-05-20T02:39:17;14.60;99.90
2024;DHT22;1016;48.770;9.154;2023-05-20T02:41:43;14.60;99.90
2024;DHT22;1016;48.770;9.154;2023-05-20T02:44:08;14.50;99.90
2024;DHT22;1016;48.770;9.154;2023-05-20T02:46:34;14.50;99.90
2024;DHT22;1016;48.770;9.154;2023-05-20T02:48:59;14.50;99.90
2024;DHT22;1016;48.770;9.154;2023-05-20T02:51:25;14.40;99.90
2024;DHT22;1016;48.770;9.154;2023-05-20T02:53:51;14.40;99.90
2024;DHT22;1016;48.770;9.154;2023-05-20T02:56:16;14.40;99.90
2024;DHT22;1016;48.770;9.154;2023-05-20T02:58:45;14.40;99.90
2024;DHT22;1016;48.770;9.154;2023-05-20T03:01:11;14.30;99.90
2024;DHT22;1016;48.770;9.154;2023-05-20T03:03:36;14.30;99.90
2024;DHT22;1016;48.770;9.154;2023-05-20T03:06:02;14.30;99.90
2024;DHT22;1016;48.770;9.154;2023-05-20T03:08:27;14.40;99.90
2024;DHT22;1016;48.770;9.154;2023-05-20T03:10:53;14.30;99.90
2024;DHT22;1016;48.770;9.154;2023-05-20T03:13:19;14.30;99.90
2024;DHT22;1016;48.770;9.154;2023-05-20T03:15:45;14.30;99.90
2024;DHT22;1016;48.770;9.154;2023-05-20T03:18:11;14.30;99.90
2024;DHT22;1016;48.770;9.154;2023-05-20T03:20:38;14.30;99.90
2024;DHT22;1016;48.770;9.154;2023-05-20T03:23:04;14.30;99.90
2024;DHT22;1016;48.770;9.154;2023-05-20T03:25:30;14.30;99.90
2024;DHT22;1016;48.770;9.154;2023-05-20T03:27:56;14.20;99.90
2024;DHT22;1016;48.770;9.154;2023-05-20T03:30:25;14.30;99.90
2024;DHT22;1016;48.770;9.154;2023-05-20T03:32:52;14.30;99.90
2024;DHT22;1016;48.770;9.154;2023-05-20T03:35:18;14.20;99.90
2024;DHT22;1016;48.770;9.154;2023-05-20T03:37:43;14.20;99.90
2024;DHT22;1016;48.770;9.154;2023-05-20T03:40:09;14.20;99.90
2024;DHT22;1016;48.770;9.154;2023-05-20T03:42:38;14.20;99.90
2024;DHT22;1016;48.770;9.154;2023-05-20T03:45:04;14.20;99.90
2024;DHT22;1016;48.770;9.154;2023-05-20T03:47:31;14.20;99.90
2024;DHT22;1016;48.770;9.154;2023-05-20T03:49:56;14.20;99.90
2024;DHT22;1016;48.770;9.154;2023-05-20T03:52:22;14.20;99.90
2024;DHT22;1016;48.770;9.154;2023-05-20T03:54:47;14.20;99.90
2024;DHT22;1016;48.770;9.154;2023-05-20T03:57:13;14.20;99.90
2024;DHT22;1016;48.770;9.154;2023-05-20T03:59:38;14.20;99.90
2024;DHT22;1016;48.770;9.154;2023-05-20T04:02:04;14.20;99.90
2024;DHT22;1016;48.770;9.154;2023-05-20T04:04:30;14.20;99.90
2024;DHT22;1016;48.770;9.154;2023-05-20T04:06:57;14.20;99.90
2024;DHT22;1016;48.770;9.154;2023-05-20T04:09:22;14.20;99.90
2024;DHT22;1016;48.770;9.154;2023-05-20T04:11:48;14.20;99.90
2024;DHT22;1016;48.770;9.154;2023-05-20T04:14:13;14.30;99.90
2024;DHT22;1016;48.770;9.154;2023-05-20T04:16:39;14.30;99.90
2024;DHT22;1016;48.770;9.154;2023-05-20T04:19:05;14.30;99.90
2024;DHT22;1016;48.770;9.154;2023-05-20T04:21:31;14.30;99.90
2024;DHT22;1016;48.770;9.154;2023-05-20T04:23:57;14.30;99.90
2024;DHT22;1016;48.770;9.154;2023-05-20T04:26:22;14.40;99.90
2024;DHT22;1016;48.770;9.154;2023-05-20T04:28:48;14.40;99.90
2024;DHT22;1016;48.770;9.154;2023-05-20T04:31:14;14.40;99.90
2024;DHT22;1016;48.770;9.154;2023-05-20T04:33:40;14.50;99.90
2024;DHT22;1016;48.770;9.154;2023-05-20T04:36:08;14.50;99.90
2024;DHT22;1016;48.770;9.154;2023-05-20T04:38:33;14.50;99.90
2024;DHT22;1016;48.770;9.154;2023-05-20T04:41:00;14.50;99.90
2024;DHT22;1016;48.770;9.154;2023-05-20T04:43:27;14.50;99.90
2024;DHT22;1016;48.770;9.154;2023-05-20T04:45:54;14.50;99.90
2024;DHT22;1016;48.770;9.154;2023-05-20T04:48:20;14.50;99.90
2024;DHT22;1016;48.770;9.154;2023-05-20T04:50:47;14.50;99.90
2024;DHT22;1016;48.770;9.154;2023-05-20T04:53:16;14.50;99.90
2024;DHT22;1016;48.770;9.154;2023-05-20T04:55:42;14.60;99.90
2024;DHT22;1016;48.770;9.154;2023-05-20T04:58:08;14.50;99.90
2024;DHT22;1016;48.770;9.154;2023-05-20T05:00:45;14.60;99.90
2024;DHT22;1016;48.770;9.154;2023-05-20T05:03:11;14.60;99.90
2024;DHT22;1016;48.770;9.154;2023-05-20T05:05:40;14.60;99.90
2024;DHT22;1016;48.770;9.154;2023-05-20T05:08:07;14.60;99.90
2024;DHT22;1016;48.770;9.154;2023-05-20T05:10:33;14.70;99.90
2024;DHT22;1016;48.770;9.154;2023-05-20T05:12:59;14.70;99.90
2024;DHT22;1016;48.770;9.154;2023-05-20T05:15:25;14.70;99.90
2024;DHT22;1016;48.770;9.154;2023-05-20T05:17:50;14.70;99.90
2024;DHT22;1016;48.770;9.154;2023-05-20T05:20:16;14.70;99.90
2024;DHT22;1016;48.770;9.154;2023-05-20T05:22:42;14.70;99.90
2024;DHT22;1016;48.770;9.154;2023-05-20T05:25:08;14.70;99.90
2024;DHT22;1016;48.770;9.154;2023-05-20T05:27:34;14.70;99.90
2024;DHT22;1016;48.770;9.154;2023-05-20T05:30:01;14.80;99.90
2024;DHT22;1016;48.770;9.154;2023-05-20T05:32:27;14.80;99.90
2024;DHT22;1016;48.770;9.154;2023-05-20T05:34:52;14.90;99.90
2024;DHT22;1016;48.770;9.154;2023-05-20T05:37:18;14.90;99.90
2024;DHT22;1016;48.770;9.154;2023-05-20T05:39:43;14.90;99.90
2024;DHT22;1016;48.770;9.154;2023-05-20T05:42:09;15.00;99.90
2024;DHT22;1016;48.770;9.154;2023-05-20T05:44:34;15.00;99.90
2024;DHT22;1016;48.770;9.154;2023-05-20T05:47:00;15.00;99.90
2024;DHT22;1016;48.770;9.154;2023-05-20T05:49:25;15.00;99.90
2024;DHT22;1016;48.770;9.154;2023-05-20T05:51:51;15.00;99.90
2024;DHT22;1016;48.770;9.154;2023-05-20T05:54:16;15.00;99.90
2024;DHT22;1016;48.770;9.154;2023-05-20T05:56:42;15.00;99.90
2024;DHT22;1016;48.770;9.154;2023-05-20T05:59:08;15.10;99.90
2024;DHT22;1016;48.770;9.154;2023-05-20T06:01:33;15.10;99.90
2024;DHT22;1016;48.770;9.154;2023-05-20T06:03:59;15.10;99.90
2024;DHT22;1016;48.770;9.154;2023-05-20T06:06:25;15.20;99.90
2024;DHT22;1016;48.770;9.154;2023-05-20T06:08:51;15.20;99.90
2024;DHT22;1016;48.770;9.154;2023-05-20T06:11:16;15.30;99.90
2024;DHT22;1016;48.770;9.154;2023-05-20T06:13:42;15.30;99.90
2024;DHT22;1016;48.770;9.154;2023-05-20T06:16:07;15.30;99.90
2024;DHT22;1016;48.770;9.154;2023-05-20T06:18:33;15.40;99.90
2024;DHT22;1016;48.770;9.154;2023-05-20T06:20:58;15.40;99.90
2024;DHT22;1016;48.770;9.154;2023-05-20T06:23:25;15.40;99.90
2024;DHT22;1016;48.770;9.154;2023-05-20T06:25:51;15.40;99.90
2024;DHT22;1016;48.770;9.154;2023-05-20T06:28:16;15.50;99.90
2024;DHT22;1016;48.770;9.154;2023-05-20T06:30:42;15.60;99.90
2024;DHT22;1016;48.770;9.154;2023-05-20T06:33:08;15.60;99.90
2024;DHT22;1016;48.770;9.154;2023-05-20T06:35:33;15.70;99.90
2024;DHT22;1016;48.770;9.154;2023-05-20T06:38:00;15.70;99.90
2024;DHT22;1016;48.770;9.154;2023-05-20T06:40:26;15.70;99.90
2024;DHT22;1016;48.770;9.154;2023-05-20T06:42:52;15.80;99.90
2024;DHT22;1016;48.770;9.154;2023-05-20T06:45:17;15.80;99.90
2024;DHT22;1016;48.770;9.154;2023-05-20T06:47:43;15.90;99.90
2024;DHT22;1016;48.770;9.154;2023-05-20T06:50:10;16.00;99.90
2024;DHT22;1016;48.770;9.154;2023-05-20T06:52:36;16.00;99.90
2024;DHT22;1016;48.770;9.154;2023-05-20T06:55:03;16.00;99.90
2024;DHT22;1016;48.770;9.154;2023-05-20T06:57:29;16.00;99.90
2024;DHT22;1016;48.770;9.154;2023-05-20T06:59:54;16.00;99.90
2024;DHT22;1016;48.770;9.154;2023-05-20T07:02:21;16.00;99.90
2024;DHT22;1016;48.770;9.154;2023-05-20T07:04:46;16.10;99.90
2024;DHT22;1016;48.770;9.154;2023-05-20T07:07:12;16.10;99.90
2024;DHT22;1016;48.770;9.154;2023-05-20T07:09:37;16.10;99.90
2024;DHT22;1016;48.770;9.154;2023-05-20T07:12:03;16.20;99.90
2024;DHT22;1016;48.770;9.154;2023-05-20T07:14:29;16.20;99.90
2024;DHT22;1016;48.770;9.154;2023-05-20T07:16:54;16.30;99.90
2024;DHT22;1016;48.770;9.154;2023-05-20T07:19:20;16.30;99.90
2024;DHT22;1016;48.770;9.154;2023-05-20T07:21:45;16.30;99.90
2024;DHT22;1016;48.770;9.154;2023-05-20T07:24:11;16.40;99.90
2024;DHT22;1016;48.770;9.154;2023-05-20T07:26:36;16.50;99.90
2024;DHT22;1016;48.770;9.154;2023-05-20T07:29:03;16.50;99.90
2024;DHT22;1016;48.770;9.154;2023-05-20T07:31:29;16.60;99.90
2024;DHT22;1016;48.770;9.154;2023-05-20T07:33:55;16.60;99.90
2024;DHT22;1016;48.770;9.154;2023-05-20T07:36:21;16.70;99.90
2024;DHT22;1016;48.770;9.154;2023-05-20T07:38:46;16.70;99.90
2024;DHT22;1016;48.770;9.154;2023-05-20T07:41:12;16.70;99.90
2024;DHT22;1016;48.770;9.154;2023-05-20T07:43:37;16.70;99.90
2024;DHT22;1016;48.770;9.154;2023-05-20T07:46:03;16.80;99.90
2024;DHT22;1016;48.770;9.154;2023-05-20T07:48:28;16.90;99.90
2024;DHT22;1016;48.770;9.154;2023-05-20T07:50:54;17.00;99.90
2024;DHT22;1016;48.770;9.154;2023-05-20T07:53:23;17.00;99.90
2024;DHT22;1016;48.770;9.154;2023-05-20T07:55:49;17.00;99.90
2024;DHT22;1016;48.770;9.154;2023-05-20T07:58:14;17.10;99.90
2024;DHT22;1016;48.770;9.154;2023-05-20T08:00:40;17.10;99.90
2024;DHT22;1016;48.770;9.154;2023-05-20T08:03:05;17.10;99.90
2024;DHT22;1016;48.770;9.154;2023-05-20T08:05:32;17.20;99.90
2024;DHT22;1016;48.770;9.154;2023-05-20T08:07:57;17.20;99.90
2024;DHT22;1016;48.770;9.154;2023-05-20T08:10:23;17.20;99.90
2024;DHT22;1016;48.770;9.154;2023-05-20T08:12:48;17.10;99.90
2024;DHT22;1016;48.770;9.154;2023-05-20T08:15:14;17.20;99.90
2024;DHT22;1016;48.770;9.154;2023-05-20T08:17:39;17.20;99.90
2024;DHT22;1016;48.770;9.154;2023-05-20T08:20:05;17.30;99.90
2024;DHT22;1016;48.770;9.154;2023-05-20T08:22:32;17.30;99.90
2024;DHT22;1016;48.770;9.154;2023-05-20T08:24:58;17.30;99.90
2024;DHT22;1016;48.770;9.154;2023-05-20T08:27:23;17.30;99.90
2024;DHT22;1016;48.770;9.154;2023-05-20T08:29:49;17.40;99.90
2024;DHT22;1016;48.770;9.154;2023-05-20T08:32:14;17.40;99.90
2024;DHT22;1016;48.770;9.154;2023-05-20T08:34:40;17.40;99.90
2024;DHT22;1016;48.770;9.154;2023-05-20T08:37:07;17.30;99.90
2024;DHT22;1016;48.770;9.154;2023-05-20T08:39:32;17.40;99.90
2024;DHT22;1016;48.770;9.154;2023-05-20T08:41:58;17.40;99.90
2024;DHT22;1016;48.770;9.154;2023-05-20T08:44:25;17.50;99.90
2024;DHT22;1016;48.770;9.154;2023-05-20T08:46:52;17.50;99.90
2024;DHT22;1016;48.770;9.154;2023-05-20T08:49:19;17.50;99.90
2024;DHT22;1016;48.770;9.154;2023-05-20T08:51:45;17.50;99.90
2024;DHT22;1016;48.770;9.154;2023-05-20T08:54:12;17.50;99.90
2024;DHT22;1016;48.770;9.154;2023-05-20T08:56:39;17.60;99.90
2024;DHT22;1016;48.770;9.154;2023-05-20T08:59:07;17.70;99.90
2024;DHT22;1016;48.770;9.154;2023-05-20T09:01:40;17.80;99.90
2024;DHT22;1016;48.770;9.154;2023-05-20T09:04:07;17.90;99.90
2024;DHT22;1016;48.770;9.154;2023-05-20T09:06:44;17.80;99.90
2024;DHT22;1016;48.770;9.154;2023-05-20T09:09:11;18.00;99.90
2024;DHT22;1016;48.770;9.154;2023-05-20T09:11:39;18.10;99.90
2024;DHT22;1016;48.770;9.154;2023-05-20T09:14:04;18.20;99.90
2024;DHT22;1016;48.770;9.154;2023-05-20T09:16:30;18.20;99.90
2024;DHT22;1016;48.770;9.154;2023-05-20T09:18:56;18.30;99.90
2024;DHT22;1016;48.770;9.154;2023-05-20T09:21:28;18.30;99.90
2024;DHT22;1016;48.770;9.154;2023-05-20T09:23:55;18.40;99.90
2024;DHT22;1016;48.770;9.154;2023-05-20T09:26:25;18.50;99.90
2024;DHT22;1016;48.770;9.154;2023-05-20T09:28:51;18.50;99.90
2024;DHT22;1016;48.770;9.154;2023-05-20T09:31:16;18.60;99.90
2024;DHT22;1016;48.770;9.154;2023-05-20T09:33:42;18.50;99.90
2024;DHT22;1016;48.770;9.154;2023-05-20T09:36:09;18.50;99.90
2024;DHT22;1016;48.770;9.154;2023-05-20T09:38:38;18.50;99.90
2024;DHT22;1016;48.770;9.154;2023-05-20T09:41:11;18.50;99.90
2024;DHT22;1016;48.770;9.154;2023-05-20T09:43:39;18.50;99.90
2024;DHT22;1016;48.770;9.154;2023-05-20T09:46:06;18.50;99.90
2024;DHT22;1016;48.770;9.154;2023-05-20T09:48:34;18.60;99.90
2024;DHT22;1016;48.770;9.154;2023-05-20T09:51:00;18.60;99.90
2024;DHT22;1016;48.770;9.154;2023-05-20T09:53:27;18.60;99.90
2024;DHT22;1016;48.770;9.154;2023-05-20T09:55:53;18.60;99.90
2024;DHT22;1016;48.770;9.154;2023-05-20T09:58:20;18.60;99.90
2024;DHT22;1016;48.770;9.154;2023-05-20T10:00:46;18.60;99.90
2024;DHT22;1016;48.770;9.154;2023-05-20T10:03:12;18.70;99.90
2024;DHT22;1016;48.770;9.154;2023-05-20T10:05:42;18.80;99.90
2024;DHT22;1016;48.770;9.154;2023-05-20T10:19:04;19.10;99.90
2024;DHT22;1016;48.770;9.154;2023-05-20T10:21:35;19.20;99.90
2024;DHT22;1016;48.770;9.154;2023-05-20T10:24:10;19.20;99.90
2024;DHT22;1016;48.770;9.154;2023-05-20T10:26:41;19.20;99.90
2024;DHT22;1016;48.770;9.154;2023-05-20T10:29:19;19.30;99.90
2024;DHT22;1016;48.770;9.154;2023-05-20T10:31:51;19.40;99.90
2024;DHT22;1016;48.770;9.154;2023-05-20T10:34:18;19.40;99.90
2024;DHT22;1016;48.770;9.154;2023-05-20T10:37:04;19.40;99.90
2024;DHT22;1016;48.770;9.154;2023-05-20T10:39:31;19.40;99.90
2024;DHT22;1016;48.770;9.154;2023-05-20T10:42:10;19.40;99.90
2024;DHT22;1016;48.770;9.154;2023-05-20T10:44:42;19.40;99.90
2024;DHT22;1016;48.770;9.154;2023-05-20T10:47:09;19.50;99.90
2024;DHT22;1016;48.770;9.154;2023-05-20T10:49:35;19.50;99.90
2024;DHT22;1016;48.770;9.154;2023-05-20T10:52:01;19.60;99.90
2024;DHT22;1016;48.770;9.154;2023-05-20T10:54:26;19.70;99.90
2024;DHT22;1016;48.770;9.154;2023-05-20T10:56:54;19.60;99.90
2024;DHT22;1016;48.770;9.154;2023-05-20T10:59:20;19.90;99.90
2024;DHT22;1016;48.770;9.154;2023-05-20T11:01:46;19.90;99.90
2024;DHT22;1016;48.770;9.154;2023-05-20T11:04:13;19.90;99.90
2024;DHT22;1016;48.770;9.154;2023-05-20T11:06:49;20.00;99.90
2024;DHT22;1016;48.770;9.154;2023-05-20T11:09:15;20.00;99.90
2024;DHT22;1016;48.770;9.154;2023-05-20T11:11:41;20.10;99.90
2024;DHT22;1016;48.770;9.154;2023-05-20T11:14:06;20.20;99.90
2024;DHT22;1016;48.770;9.154;2023-05-20T11:16:32;20.30;99.90
2024;DHT22;1016;48.770;9.154;2023-05-20T11:18:57;20.40;99.90
2024;DHT22;1016;48.770;9.154;2023-05-20T11:21:23;20.50;99.90
2024;DHT22;1016;48.770;9.154;2023-05-20T11:23:50;20.50;99.90
2024;DHT22;1016;48.770;9.154;2023-05-20T11:26:16;20.50;99.90
2024;DHT22;1016;48.770;9.154;2023-05-20T11:28:41;20.50;99.90
2024;DHT22;1016;48.770;9.154;2023-05-20T11:31:07;20.50;99.90
2024;DHT22;1016;48.770;9.154;2023-05-20T11:33:32;20.50;99.90
2024;DHT22;1016;48.770;9.154;2023-05-20T11:35:58;20.50;99.90
2024;DHT22;1016;48.770;9.154;2023-05-20T11:38:23;20.60;99.90
2024;DHT22;1016;48.770;9.154;2023-05-20T11:40:54;20.70;99.90
2024;DHT22;1016;48.770;9.154;2023-05-20T11:43:21;20.70;99.90
2024;DHT22;1016;48.770;9.154;2023-05-20T11:45:52;20.70;99.90
2024;DHT22;1016;48.770;9.154;2023-05-20T11:48:18;20.70;99.90
2024;DHT22;1016;48.770;9.154;2023-05-20T11:50:45;20.70;99.90
2024;DHT22;1016;48.770;9.154;2023-05-20T11:53:19;20.70;99.90
2024;DHT22;1016;48.770;9.154;2023-05-20T11:55:55;20.60;99.90
2024;DHT22;1016;48.770;9.154;2023-05-20T11:58:31;20.70;99.90
2024;DHT22;1016;48.770;9.154;2023-05-20T12:00:57;20.70;99.90
2024;DHT22;1016;48.770;9.154;2023-05-20T12:03:23;20.70;99.90
2024;DHT22;1016;48.770;9.154;2023-05-20T12:05:49;20.70;99.90
2024;DHT22;1016;48.770;9.154;2023-05-20T12:08:15;20.70;99.90
2024;DHT22;1016;48.770;9.154;2023-05-20T12:10:41;20.70;99.90
2024;DHT22;1016;48.770;9.154;2023-05-20T12:13:07;20.80;99.90
2024;DHT22;1016;48.770;9.154;2023-05-20T12:15:39;20.90;99.90
2024;DHT22;1016;48.770;9.154;2023-05-20T12:18:05;21.00;99.90
2024;DHT22;1016;48.770;9.154;2023-05-20T12:20:31;21.20;99.90
2024;DHT22;1016;48.770;9.154;2023-05-20T12:22:59;21.30;99.90
2024;DHT22;1016;48.770;9.154;2023-05-20T12:25:25;21.30;99.90
2024;DHT22;1016;48.770;9.154;2023-05-20T12:27:50;21.30;99.90
2024;DHT22;1016;48.770;9.154;2023-05-20T12:30:18;21.40;99.90
2024;DHT22;1016;48.770;9.154;2023-05-20T12:32:45;21.50;99.90
2024;DHT22;1016;48.770;9.154;2023-05-20T12:35:11;21.60;99.90
2024;DHT22;1016;48.770;9.154;2023-05-20T12:37:38;21.50;99.90
2024;DHT22;1016;48.770;9.154;2023-05-20T12:42:36;21.70;99.90
2024;DHT22;1016;48.770;9.154;2023-05-20T12:45:02;21.70;99.90
2024;DHT22;1016;48.770;9.154;2023-05-20T12:47:28;21.80;99.90
2024;DHT22;1016;48.770;9.154;2023-05-20T12:49:54;21.80;99.90
2024;DHT22;1016;48.770;9.154;2023-05-20T12:52:19;21.90;99.90
2024;DHT22;1016;48.770;9.154;2023-05-20T12:54:45;21.90;99.90
2024;DHT22;1016;48.770;9.154;2023-05-20T12:57:10;21.90;99.90
2024;DHT22;1016;48.770;9.154;2023-05-20T13:02:02;21.90;99.90
2024;DHT22;1016;48.770;9.154;2023-05-20T13:04:27;21.90;99.90
2024;DHT22;1016;48.770;9.154;2023-05-20T13:06:53;22.00;99.90
2024;DHT22;1016;48.770;9.154;2023-05-20T13:09:19;22.00;99.90
2024;DHT22;1016;48.770;9.154;2023-05-20T13:11:44;22.00;99.90
2024;DHT22;1016;48.770;9.154;2023-05-20T13:14:10;22.00;99.90
2024;DHT22;1016;48.770;9.154;2023-05-20T13:16:36;22.10;99.90
2024;DHT22;1016;48.770;9.154;2023-05-20T13:19:01;22.20;99.90
2024;DHT22;1016;48.770;9.154;2023-05-20T13:21:27;22.30;99.90
2024;DHT22;1016;48.770;9.154;2023-05-20T13:23:52;22.50;99.90
2024;DHT22;1016;48.770;9.154;2023-05-20T13:26:18;22.70;99.90
2024;DHT22;1016;48.770;9.154;2023-05-20T13:28:43;22.70;99.90
2024;DHT22;1016;48.770;9.154;2023-05-20T13:31:09;22.80;99.90
2024;DHT22;1016;48.770;9.154;2023-05-20T13:33:34;22.80;99.90
2024;DHT22;1016;48.770;9.154;2023-05-20T13:36:00;23.60;99.90
2024;DHT22;1016;48.770;9.154;2023-05-20T13:43:17;28.30;97.00
2024;DHT22;1016;48.770;9.154;2023-05-20T13:45:43;30.00;94.00
2024;DHT22;1016;48.770;9.154;2023-05-20T13:48:08;30.90;92.10
2024;DHT22;1016;48.770;9.154;2023-05-20T13:50:34;30.80;85.40
2024;DHT22;1016;48.770;9.154;2023-05-20T13:52:59;29.80;82.80
2024;DHT22;1016;48.770;9.154;2023-05-20T13:55:25;29.20;83.00
2024;DHT22;1016;48.770;9.154;2023-05-20T13:57:50;28.50;80.80
2024;DHT22;1016;48.770;9.154;2023-05-20T14:00:18;27.50;80.90
2024;DHT22;1016;48.770;9.154;2023-05-20T14:02:44;26.80;82.60
2024;DHT22;1016;48.770;9.154;2023-05-20T14:05:09;26.30;83.70
2024;DHT22;1016;48.770;9.154;2023-05-20T14:10:01;25.40;86.50
2024;DHT22;1016;48.770;9.154;2023-05-20T14:14:52;25.00;88.60
2024;DHT22;1016;48.770;9.154;2023-05-20T14:17:18;24.70;90.20
2024;DHT22;1016;48.770;9.154;2023-05-20T14:19:43;24.40;90.50
2024;DHT22;1016;48.770;9.154;2023-05-20T14:22:09;24.10;90.30
2024;DHT22;1016;48.770;9.154;2023-05-20T14:24:34;24.10;90.90
2024;DHT22;1016;48.770;9.154;2023-05-20T14:27:00;23.80;91.90
2024;DHT22;1016;48.770;9.154;2023-05-20T14:29:25;23.80;93.10
2024;DHT22;1016;48.770;9.154;2023-05-20T14:31:51;23.80;93.00
2024;DHT22;1016;48.770;9.154;2023-05-20T14:34:16;23.80;93.50
2024;DHT22;1016;48.770;9.154;2023-05-20T14:36:42;23.80;93.80
2024;DHT22;1016;48.770;9.154;2023-05-20T14:39:08;23.70;94.50
2024;DHT22;1016;48.770;9.154;2023-05-20T14:41:35;23.70;94.30
2024;DHT22;1016;48.770;9.154;2023-05-20T14:44:00;23.70;94.80
2024;DHT22;1016;48.770;9.154;2023-05-20T14:46:26;23.70;93.90
2024;DHT22;1016;48.770;9.154;2023-05-20T14:48:51;23.70;93.20
2024;DHT22;1016;48.770;9.154;2023-05-20T14:51:17;23.70;92.60
2024;DHT22;1016;48.770;9.154;2023-05-20T14:53:42;23.70;92.30
2024;DHT22;1016;48.770;9.154;2023-05-20T14:56:08;23.80;92.40
2024;DHT22;1016;48.770;9.154;2023-05-20T14:58:34;23.80;92.30
2024;DHT22;1016;48.770;9.154;2023-05-20T15:00:59;23.90;92.70
2024;DHT22;1016;48.770;9.154;2023-05-20T15:03:25;23.90;92.80
2024;DHT22;1016;48.770;9.154;2023-05-20T15:05:52;23.90;92.60
2024;DHT22;1016;48.770;9.154;2023-05-20T15:08:17;23.90;92.20
2024;DHT22;1016;48.770;9.154;2023-05-20T15:10:43;23.80;92.20
2024;DHT22;1016;48.770;9.154;2023-05-20T15:13:08;23.80;92.20
2024;DHT22;1016;48.770;9.154;2023-05-20T15:15:34;23.70;91.60
2024;DHT22;1016;48.770;9.154;2023-05-20T15:17:59;23.70;91.60
2024;DHT22;1016;48.770;9.154;2023-05-20T15:20:25;23.50;91.70
2024;DHT22;1016;48.770;9.154;2023-05-20T15:22:52;23.50;92.20
2024;DHT22;1016;48.770;9.154;2023-05-20T15:25:17;23.50;92.40
2024;DHT22;1016;48.770;9.154;2023-05-20T15:27:43;23.50;92.60
2024;DHT22;1016;48.770;9.154;2023-05-20T15:30:09;23.50;94.00
2024;DHT22;1016;48.770;9.154;2023-05-20T15:32:34;23.50;93.80
2024;DHT22;1016;48.770;9.154;2023-05-20T15:35:00;23.50;92.60
2024;DHT22;1016;48.770;9.154;2023-05-20T15:37:26;23.50;92.20
2024;DHT22;1016;48.770;9.154;2023-05-20T15:39:52;23.50;92.70
2024;DHT22;1016;48.770;9.154;2023-05-20T15:42:18;23.50;92.70
2024;DHT22;1016;48.770;9.154;2023-05-20T15:44:44;23.60;92.70
2024;DHT22;1016;48.770;9.154;2023-05-20T15:47:10;23.60;92.50
2024;DHT22;1016;48.770;9.154;2023-05-20T15:49:35;23.60;92.80
2024;DHT22;1016;48.770;9.154;2023-05-20T15:52:01;23.60;92.50
2024;DHT22;1016;48.770;9.154;2023-05-20T15:54:26;23.60;92.60
2024;DHT22;1016;48.770;9.154;2023-05-20T15:56:52;23.60;92.40
2024;DHT22;1016;48.770;9.154;2023-05-20T15:59:18;23.50;92.70
2024;DHT22;1016;48.770;9.154;2023-05-20T16:01:43;23.40;92.30
2024;DHT22;1016;48.770;9.154;2023-05-20T16:04:09;23.30;92.10
2024;DHT22;1016;48.770;9.154;2023-05-20T16:06:34;23.20;92.40
2024;DHT22;1016;48.770;9.154;2023-05-20T16:11:27;23.00;99.90
2024;DHT22;1016;48.770;9.154;2023-05-20T16:13:53;23.30;99.90
2024;DHT22;1016;48.770;9.154;2023-05-20T16:16:20;23.00;94.40
2024;DHT22;1016;48.770;9.154;2023-05-20T16:18:46;23.00;94.70
2024;DHT22;1016;48.770;9.154;2023-05-20T16:21:11;22.90;94.90
2024;DHT22;1016;48.770;9.154;2023-05-20T16:23:37;22.90;95.20